sensor_id;sensor_type;location;lat;lon;timestamp;temperature;humidity
11666;DHT22;5889;51.350;6.708;2024-01-25T00:01:47;8.70;99.90
11666;DHT22;5889;51.350;6.708;2024-01-25T00:04:14;8.70;99.90
11666;DHT22;5889;51.350;6.708;2024-01-25T00:06:41;8.70;99.90
11666;DHT22;5889;51.350;6.708;2024-01-25T00:09:08;8.70;99.90
11666;DHT22;5889;51.350;6.708;2024-01-25T00:11:35;8.70;99.90
11666;DHT22;5889;51.350;6.708;2024-01-25T00:14:03;8.70;99.90
11666;DHT22;5889;51.350;6.708;2024-01-25T00:16:30;8.70;99.90
11666;DHT22;5889;51.350;6.708;2024-01-25T00:18:57;8.70;99.90
11666;DHT22;5889;51.350;6.708;2024-01-25T00:21:24;8.70;99.90
11666;DHT22;5889;51.350;6.708;2024-01-25T00:23:51;8.70;99.90
11666;DHT22;5889;51.350;6.708;2024-01-25T00:26:17;8.70;99.90
11666;DHT22;5889;51.350;6.708;2024-01-25T00:28:44;8.70;99.90
11666;DHT22;5889;51.350;6.708;2024-01-25T00:31:13;8.70;99.90
11666;DHT22;5889;51.350;6.708;2024-01-25T00:33:40;8.60;99.90
11666;DHT22;5889;51.350;6.708;2024-01-25T00:36:08;8.60;99.90
11666;DHT22;5889;51.350;6.708;2024-01-25T00:38:35;8.60;99.90
11666;DHT22;5889;51.350;6.708;2024-01-25T00:41:02;8.60;99.90
11666;DHT22;5889;51.350;6.708;2024-01-25T00:43:31;8.60;99.90
11666;DHT22;5889;51.350;6.708;2024-01-25T00:45:58;8.50;99.90
11666;DHT22;5889;51.350;6.708;2024-01-25T00:48:27;8.50;99.90
11666;DHT22;5889;51.350;6.708;2024-01-25T00:50:54;8.50;99.90
11666;DHT22;5889;51.350;6.708;2024-01-25T00:53:22;8.50;99.90
11666;DHT22;5889;51.350;6.708;2024-01-25T00:55:49;8.50;99.90
11666;DHT22;5889;51.350;6.708;2024-01-25T00:58:17;8.40;99.90
11666;DHT22;5889;51.350;6.708;2024-01-25T01:00:44;8.40;99.90
11666;DHT22;5889;51.350;6.708;2024-01-25T01:03:12;8.30;99.90
11666;DHT22;5889;51.350;6.708;2024-01-25T01:05:42;8.30;99.90
11666;DHT22;5889;51.350;6.708;2024-01-25T01:08:11;8.30;99.90
11666;DHT22;5889;51.350;6.708;2024-01-25T01:10:38;8.30;99.90
11666;DHT22;5889;51.350;6.708;2024-01-25T01:13:04;8.20;99.90
11666;DHT22;5889;51.350;6.708;2024-01-25T01:15:31;8.20;99.90
11666;DHT22;5889;51.350;6.708;2024-01-25T01:17:58;8.20;99.90
11666;DHT22;5889;51.350;6.708;2024-01-25T01:20:25;8.10;99.90
11666;DHT22;5889;51.350;6.708;2024-01-25T01:22:53;8.10;99.90
11666;DHT22;5889;51.350;6.708;2024-01-25T01:25:20;8.10;99.90
11666;DHT22;5889;51.350;6.708;2024-01-25T01:27:47;8.00;99.90
11666;DHT22;5889;51.350;6.708;2024-01-25T01:30:14;8.00;99.90
11666;DHT22;5889;51.350;6.708;2024-01-25T01:32:41;8.00;99.90
11666;DHT22;5889;51.350;6.708;2024-01-25T01:35:08;8.00;99.90
11666;DHT22;5889;51.350;6.708;2024-01-25T01:37:35;7.90;99.90
11666;DHT22;5889;51.350;6.708;2024-01-25T01:40:05;7.90;99.90
11666;DHT22;5889;51.350;6.708;2024-01-25T01:42:32;7.90;99.90
11666;DHT22;5889;51.350;6.708;2024-01-25T01:44:59;7.80;99.90
11666;DHT22;5889;51.350;6.708;2024-01-25T01:47:26;7.80;99.90
11666;DHT22;5889;51.350;6.708;2024-01-25T01:49:53;7.80;99.90
11666;DHT22;5889;51.350;6.708;2024-01-25T01:52:20;7.80;99.90
11666;DHT22;5889;51.350;6.708;2024-01-25T01:54:48;7.70;99.90
11666;DHT22;5889;51.350;6.708;2024-01-25T01:57:16;7.70;99.90
11666;DHT22;5889;51.350;6.708;2024-01-25T01:59:43;7.60;99.90
11666;DHT22;5889;51.350;6.708;2024-01-25T02:02:11;7.60;99.90
11666;DHT22;5889;51.350;6.708;2024-01-25T02:04:38;7.60;99.90
11666;DHT22;5889;51.350;6.708;2024-01-25T02:07:05;7.50;99.90
11666;DHT22;5889;51.350;6.708;2024-01-25T02:09:33;7.50;99.90
11666;DHT22;5889;51.350;6.708;2024-01-25T02:12:01;7.40;99.90
11666;DHT22;5889;51.350;6.708;2024-01-25T02:14:30;7.40;99.90
11666;DHT22;5889;51.350;6.708;2024-01-25T02:16:57;7.30;99.90
11666;DHT22;5889;51.350;6.708;2024-01-25T02:19:24;7.30;99.90
11666;DHT22;5889;51.350;6.708;2024-01-25T02:21:52;7.30;99.90
11666;DHT22;5889;51.350;6.708;2024-01-25T02:24:21;7.20;99.90
11666;DHT22;5889;51.350;6.708;2024-01-25T02:26:48;7.10;99.90
11666;DHT22;5889;51.350;6.708;2024-01-25T02:29:15;7.10;99.90
11666;DHT22;5889;51.350;6.708;2024-01-25T02:31:42;7.20;99.90
11666;DHT22;5889;51.350;6.708;2024-01-25T02:34:09;7.20;99.90
11666;DHT22;5889;51.350;6.708;2024-01-25T02:36:36;7.30;99.90
11666;DHT22;5889;51.350;6.708;2024-01-25T02:39:03;7.30;99.90
11666;DHT22;5889;51.350;6.708;2024-01-25T02:41:32;7.30;99.90
11666;DHT22;5889;51.350;6.708;2024-01-25T02:44:00;7.30;99.90
11666;DHT22;5889;51.350;6.708;2024-01-25T02:46:27;7.40;99.90
11666;DHT22;5889;51.350;6.708;2024-01-25T02:48:54;7.40;99.90
11666;DHT22;5889;51.350;6.708;2024-01-25T02:51:20;7.40;99.90
11666;DHT22;5889;51.350;6.708;2024-01-25T02:53:47;7.40;99.90
11666;DHT22;5889;51.350;6.708;2024-01-25T02:56:14;7.40;99.90
11666;DHT22;5889;51.350;6.708;2024-01-25T02:58:43;7.30;99.90
11666;DHT22;5889;51.350;6.708;2024-01-25T03:01:10;7.40;99.90
11666;DHT22;5889;51.350;6.708;2024-01-25T03:03:37;7.30;99.90
11666;DHT22;5889;51.350;6.708;2024-01-25T03:06:06;7.40;99.90
11666;DHT22;5889;51.350;6.708;2024-01-25T03:08:34;7.30;99.90
11666;DHT22;5889;51.350;6.708;2024-01-25T03:11:01;7.30;99.90
11666;DHT22;5889;51.350;6.708;2024-01-25T03:13:30;7.30;99.90
11666;DHT22;5889;51.350;6.708;2024-01-25T03:15:58;7.30;99.90
11666;DHT22;5889;51.350;6.708;2024-01-25T03:18:25;7.30;99.90
11666;DHT22;5889;51.350;6.708;2024-01-25T03:20:52;7.30;99.90
11666;DHT22;5889;51.350;6.708;2024-01-25T03:23:19;7.20;99.90
11666;DHT22;5889;51.350;6.708;2024-01-25T03:25:46;7.20;99.90
11666;DHT22;5889;51.350;6.708;2024-01-25T03:28:13;7.20;99.90
11666;DHT22;5889;51.350;6.708;2024-01-25T03:30:42;7.10;99.90
11666;DHT22;5889;51.350;6.708;2024-01-25T03:33:10;7.10;99.90
11666;DHT22;5889;51.350;6.708;2024-01-25T03:35:37;7.10;99.90
11666;DHT22;5889;51.350;6.708;2024-01-25T03:38:04;7.00;99.90
11666;DHT22;5889;51.350;6.708;2024-01-25T03:40:31;7.00;99.90
11666;DHT22;5889;51.350;6.708;2024-01-25T03:42:58;7.00;99.90
11666;DHT22;5889;51.350;6.708;2024-01-25T03:45:25;6.90;99.90
11666;DHT22;5889;51.350;6.708;2024-01-25T03:47:52;6.90;99.90
11666;DHT22;5889;51.350;6.708;2024-01-25T03:50:20;6.90;99.90
11666;DHT22;5889;51.350;6.708;2024-01-25T03:52:47;6.80;99.90
11666;DHT22;5889;51.350;6.708;2024-01-25T03:55:14;6.80;99.90
11666;DHT22;5889;51.350;6.708;2024-01-25T03:57:41;6.80;99.90
11666;DHT22;5889;51.350;6.708;2024-01-25T04:00:09;6.80;99.90
11666;DHT22;5889;51.350;6.708;2024-01-25T04:02:37;6.80;99.90
11666;DHT22;5889;51.350;6.708;2024-01-25T04:05:04;6.70;99.90
11666;DHT22;5889;51.350;6.708;2024-01-25T04:07:33;6.70;99.90
11666;DHT22;5889;51.350;6.708;2024-01-25T04:10:00;6.70;99.90
11666;DHT22;5889;51.350;6.708;2024-01-25T04:12:27;6.60;99.90
11666;DHT22;5889;51.350;6.708;2024-01-25T04:14:53;6.60;99.90
11666;DHT22;5889;51.350;6.708;2024-01-25T04:17:20;6.50;99.90
11666;DHT22;5889;51.350;6.708;2024-01-25T04:19:47;6.50;99.90
11666;DHT22;5889;51.350;6.708;2024-01-25T04:22:14;6.50;99.90
11666;DHT22;5889;51.350;6.708;2024-01-25T04:24:42;6.40;99.90
11666;DHT22;5889;51.350;6.708;2024-01-25T04:27:09;6.30;99.90
11666;DHT22;5889;51.350;6.708;2024-01-25T04:29:38;6.30;99.90
11666;DHT22;5889;51.350;6.708;2024-01-25T04:32:05;6.20;99.90
11666;DHT22;5889;51.350;6.708;2024-01-25T04:34:32;6.10;99.90
11666;DHT22;5889;51.350;6.708;2024-01-25T04:36:59;6.10;99.90
11666;DHT22;5889;51.350;6.708;2024-01-25T04:39:26;6.20;99.90
11666;DHT22;5889;51.350;6.708;2024-01-25T04:41:54;6.10;99.90
11666;DHT22;5889;51.350;6.708;2024-01-25T04:44:21;6.10;99.90
11666;DHT22;5889;51.350;6.708;2024-01-25T04:46:48;6.20;99.90
11666;DHT22;5889;51.350;6.708;2024-01-25T04:49:15;6.20;99.90
11666;DHT22;5889;51.350;6.708;2024-01-25T04:51:42;6.20;99.90
11666;DHT22;5889;51.350;6.708;2024-01-25T04:54:09;6.20;99.90
11666;DHT22;5889;51.350;6.708;2024-01-25T04:56:38;6.20;99.90
11666;DHT22;5889;51.350;6.708;2024-01-25T04:59:06;6.20;99.90
11666;DHT22;5889;51.350;6.708;2024-01-25T05:01:33;6.20;99.90
11666;DHT22;5889;51.350;6.708;2024-01-25T05:04:00;6.10;99.90
11666;DHT22;5889;51.350;6.708;2024-01-25T05:06:27;6.20;99.90
11666;DHT22;5889;51.350;6.708;2024-01-25T05:08:54;6.10;99.90
11666;DHT22;5889;51.350;6.708;2024-01-25T05:11:21;6.20;99.90
11666;DHT22;5889;51.350;6.708;2024-01-25T05:13:48;6.10;99.90
11666;DHT22;5889;51.350;6.708;2024-01-25T05:16:16;6.10;99.90
11666;DHT22;5889;51.350;6.708;2024-01-25T05:18:43;6.10;99.90
11666;DHT22;5889;51.350;6.708;2024-01-25T05:21:10;6.10;99.90
11666;DHT22;5889;51.350;6.708;2024-01-25T05:23:37;6.10;99.90
11666;DHT22;5889;51.350;6.708;2024-01-25T05:26:05;6.10;99.90
11666;DHT22;5889;51.350;6.708;2024-01-25T05:28:32;6.10;99.90
11666;DHT22;5889;51.350;6.708;2024-01-25T05:30:59;6.00;99.90
11666;DHT22;5889;51.350;6.708;2024-01-25T05:33:27;6.00;99.90
11666;DHT22;5889;51.350;6.708;2024-01-25T05:35:54;6.00;99.90
11666;DHT22;5889;51.350;6.708;2024-01-25T05:38:21;5.90;99.90
11666;DHT22;5889;51.350;6.708;2024-01-25T05:40:48;5.90;99.90
11666;DHT22;5889;51.350;6.708;2024-01-25T05:43:15;5.90;99.90
11666;DHT22;5889;51.350;6.708;2024-01-25T05:45:42;5.90;99.90
11666;DHT22;5889;51.350;6.708;2024-01-25T05:48:09;5.90;99.90
11666;DHT22;5889;51.350;6.708;2024-01-25T05:50:37;5.90;99.90
11666;DHT22;5889;51.350;6.708;2024-01-25T05:53:04;5.90;99.90
11666;DHT22;5889;51.350;6.708;2024-01-25T05:55:31;5.90;99.90
11666;DHT22;5889;51.350;6.708;2024-01-25T05:57:58;5.80;99.90
11666;DHT22;5889;51.350;6.708;2024-01-25T06:00:25;5.80;99.90
11666;DHT22;5889;51.350;6.708;2024-01-25T06:02:53;5.70;99.90
11666;DHT22;5889;51.350;6.708;2024-01-25T06:05:20;5.70;99.90
11666;DHT22;5889;51.350;6.708;2024-01-25T06:07:49;5.60;99.90
11666;DHT22;5889;51.350;6.708;2024-01-25T06:10:16;5.60;99.90
11666;DHT22;5889;51.350;6.708;2024-01-25T06:12:43;5.60;99.90
11666;DHT22;5889;51.350;6.708;2024-01-25T06:15:10;5.50;99.90
11666;DHT22;5889;51.350;6.708;2024-01-25T06:17:37;5.50;99.90
11666;DHT22;5889;51.350;6.708;2024-01-25T06:20:04;5.50;99.90
11666;DHT22;5889;51.350;6.708;2024-01-25T06:22:31;5.30;99.90
11666;DHT22;5889;51.350;6.708;2024-01-25T06:25:00;5.30;99.90
11666;DHT22;5889;51.350;6.708;2024-01-25T06:27:26;5.30;99.90
11666;DHT22;5889;51.350;6.708;2024-01-25T06:29:53;5.40;99.90
11666;DHT22;5889;51.350;6.708;2024-01-25T06:32:20;5.40;99.90
11666;DHT22;5889;51.350;6.708;2024-01-25T06:34:47;5.40;99.90
11666;DHT22;5889;51.350;6.708;2024-01-25T06:37:14;5.40;99.90
11666;DHT22;5889;51.350;6.708;2024-01-25T06:39:44;5.40;99.90
11666;DHT22;5889;51.350;6.708;2024-01-25T06:42:12;5.40;99.90
11666;DHT22;5889;51.350;6.708;2024-01-25T06:44:39;5.50;99.90
11666;DHT22;5889;51.350;6.708;2024-01-25T06:47:06;5.40;99.90
11666;DHT22;5889;51.350;6.708;2024-01-25T06:49:36;5.40;99.90
11666;DHT22;5889;51.350;6.708;2024-01-25T06:52:03;5.40;99.90
11666;DHT22;5889;51.350;6.708;2024-01-25T06:54:30;5.40;99.90
11666;DHT22;5889;51.350;6.708;2024-01-25T06:56:57;5.40;99.90
11666;DHT22;5889;51.350;6.708;2024-01-25T06:59:26;5.40;99.90
11666;DHT22;5889;51.350;6.708;2024-01-25T07:01:55;5.40;99.90
11666;DHT22;5889;51.350;6.708;2024-01-25T07:04:22;5.40;99.90
11666;DHT22;5889;51.350;6.708;2024-01-25T07:06:49;5.40;99.90
11666;DHT22;5889;51.350;6.708;2024-01-25T07:09:17;5.40;99.90
11666;DHT22;5889;51.350;6.708;2024-01-25T07:11:44;5.40;99.90
11666;DHT22;5889;51.350;6.708;2024-01-25T07:14:11;5.30;99.90
11666;DHT22;5889;51.350;6.708;2024-01-25T07:16:39;5.30;99.90
11666;DHT22;5889;51.350;6.708;2024-01-25T07:19:06;5.30;99.90
11666;DHT22;5889;51.350;6.708;2024-01-25T07:21:33;5.30;99.90
11666;DHT22;5889;51.350;6.708;2024-01-25T07:24:02;5.30;99.90
11666;DHT22;5889;51.350;6.708;2024-01-25T07:26:30;5.30;99.90
11666;DHT22;5889;51.350;6.708;2024-01-25T07:28:57;5.30;99.90
11666;DHT22;5889;51.350;6.708;2024-01-25T07:31:25;5.30;99.90
11666;DHT22;5889;51.350;6.708;2024-01-25T07:33:54;5.30;99.90
11666;DHT22;5889;51.350;6.708;2024-01-25T07:36:21;5.30;99.90
11666;DHT22;5889;51.350;6.708;2024-01-25T07:38:48;5.30;99.90
11666;DHT22;5889;51.350;6.708;2024-01-25T07:41:15;5.30;99.90
11666;DHT22;5889;51.350;6.708;2024-01-25T07:43:42;5.30;99.90
11666;DHT22;5889;51.350;6.708;2024-01-25T07:46:09;5.30;99.90
11666;DHT22;5889;51.350;6.708;2024-01-25T07:48:40;5.30;99.90
11666;DHT22;5889;51.350;6.708;2024-01-25T07:51:12;5.30;99.90
11666;DHT22;5889;51.350;6.708;2024-01-25T07:53:39;5.30;99.90
11666;DHT22;5889;51.350;6.708;2024-01-25T07:56:06;5.20;99.90
11666;DHT22;5889;51.350;6.708;2024-01-25T07:58:35;5.30;99.90
11666;DHT22;5889;51.350;6.708;2024-01-25T08:01:03;5.30;99.90
11666;DHT22;5889;51.350;6.708;2024-01-25T08:03:31;5.30;99.90
11666;DHT22;5889;51.350;6.708;2024-01-25T08:05:58;5.40;99.90
11666;DHT22;5889;51.350;6.708;2024-01-25T08:08:26;5.40;99.90
11666;DHT22;5889;51.350;6.708;2024-01-25T08:10:53;5.50;99.90
11666;DHT22;5889;51.350;6.708;2024-01-25T08:13:20;5.50;99.90
11666;DHT22;5889;51.350;6.708;2024-01-25T08:15:48;5.50;99.90
11666;DHT22;5889;51.350;6.708;2024-01-25T08:18:15;5.60;99.90
11666;DHT22;5889;51.350;6.708;2024-01-25T08:20:44;5.60;99.90
11666;DHT22;5889;51.350;6.708;2024-01-25T08:23:12;5.70;99.90
11666;DHT22;5889;51.350;6.708;2024-01-25T08:25:41;5.70;99.90
11666;DHT22;5889;51.350;6.708;2024-01-25T08:28:07;5.70;99.90
11666;DHT22;5889;51.350;6.708;2024-01-25T08:30:34;5.80;99.90
11666;DHT22;5889;51.350;6.708;2024-01-25T08:33:01;5.80;99.90
11666;DHT22;5889;51.350;6.708;2024-01-25T08:35:28;5.80;99.90
11666;DHT22;5889;51.350;6.708;2024-01-25T08:37:56;5.90;99.90
11666;DHT22;5889;51.350;6.708;2024-01-25T08:40:23;5.90;99.90
11666;DHT22;5889;51.350;6.708;2024-01-25T08:42:51;5.90;99.90
11666;DHT22;5889;51.350;6.708;2024-01-25T08:45:18;5.90;99.90
11666;DHT22;5889;51.350;6.708;2024-01-25T08:47:45;5.90;99.90
11666;DHT22;5889;51.350;6.708;2024-01-25T08:50:14;6.00;99.90
11666;DHT22;5889;51.350;6.708;2024-01-25T08:52:41;6.00;99.90
11666;DHT22;5889;51.350;6.708;2024-01-25T08:55:08;6.10;99.90
11666;DHT22;5889;51.350;6.708;2024-01-25T08:57:36;6.10;99.90
11666;DHT22;5889;51.350;6.708;2024-01-25T09:00:05;6.10;99.90
11666;DHT22;5889;51.350;6.708;2024-01-25T09:02:36;6.20;99.90
11666;DHT22;5889;51.350;6.708;2024-01-25T09:05:04;6.30;99.90
11666;DHT22;5889;51.350;6.708;2024-01-25T09:07:31;6.30;99.90
11666;DHT22;5889;51.350;6.708;2024-01-25T09:09:58;6.30;99.90
11666;DHT22;5889;51.350;6.708;2024-01-25T09:12:25;6.40;99.90
11666;DHT22;5889;51.350;6.708;2024-01-25T09:14:52;6.40;99.90
11666;DHT22;5889;51.350;6.708;2024-01-25T09:17:20;6.50;99.90
11666;DHT22;5889;51.350;6.708;2024-01-25T09:19:48;6.40;99.90
11666;DHT22;5889;51.350;6.708;2024-01-25T09:22:16;6.50;99.90
11666;DHT22;5889;51.350;6.708;2024-01-25T09:24:45;6.50;99.90
11666;DHT22;5889;51.350;6.708;2024-01-25T09:27:12;6.60;99.90
11666;DHT22;5889;51.350;6.708;2024-01-25T09:29:39;6.60;99.90
11666;DHT22;5889;51.350;6.708;2024-01-25T09:32:07;6.60;99.90
11666;DHT22;5889;51.350;6.708;2024-01-25T09:34:35;6.60;99.90
11666;DHT22;5889;51.350;6.708;2024-01-25T09:37:03;6.60;99.90
11666;DHT22;5889;51.350;6.708;2024-01-25T09:39:31;6.60;99.90
11666;DHT22;5889;51.350;6.708;2024-01-25T09:41:58;6.70;99.90
11666;DHT22;5889;51.350;6.708;2024-01-25T09:44:25;6.70;99.90
11666;DHT22;5889;51.350;6.708;2024-01-25T09:46:52;6.80;99.90
11666;DHT22;5889;51.350;6.708;2024-01-25T09:49:19;6.80;99.90
11666;DHT22;5889;51.350;6.708;2024-01-25T09:51:51;6.90;99.90
11666;DHT22;5889;51.350;6.708;2024-01-25T09:54:19;7.00;99.90
11666;DHT22;5889;51.350;6.708;2024-01-25T09:56:47;7.00;99.90
11666;DHT22;5889;51.350;6.708;2024-01-25T09:59:16;7.10;99.90
11666;DHT22;5889;51.350;6.708;2024-01-25T10:01:44;7.20;99.90
11666;DHT22;5889;51.350;6.708;2024-01-25T10:04:12;7.20;99.90
11666;DHT22;5889;51.350;6.708;2024-01-25T10:06:38;7.30;99.90
11666;DHT22;5889;51.350;6.708;2024-01-25T10:09:07;7.30;99.90
11666;DHT22;5889;51.350;6.708;2024-01-25T10:11:35;7.30;99.90
11666;DHT22;5889;51.350;6.708;2024-01-25T10:14:03;7.40;99.90
11666;DHT22;5889;51.350;6.708;2024-01-25T10:16:30;7.40;99.90
11666;DHT22;5889;51.350;6.708;2024-01-25T10:18:57;7.50;99.90
11666;DHT22;5889;51.350;6.708;2024-01-25T10:21:24;7.60;99.90
11666;DHT22;5889;51.350;6.708;2024-01-25T10:23:52;7.60;99.90
11666;DHT22;5889;51.350;6.708;2024-01-25T10:26:21;7.70;99.90
11666;DHT22;5889;51.350;6.708;2024-01-25T10:28:52;7.70;99.90
11666;DHT22;5889;51.350;6.708;2024-01-25T10:31:23;7.70;99.90
11666;DHT22;5889;51.350;6.708;2024-01-25T10:33:51;7.70;99.90
11666;DHT22;5889;51.350;6.708;2024-01-25T10:36:19;7.80;99.90
11666;DHT22;5889;51.350;6.708;2024-01-25T10:38:48;7.90;99.90
11666;DHT22;5889;51.350;6.708;2024-01-25T10:41:16;8.00;99.90
11666;DHT22;5889;51.350;6.708;2024-01-25T10:43:45;8.10;99.90
11666;DHT22;5889;51.350;6.708;2024-01-25T10:46:12;8.20;99.90
11666;DHT22;5889;51.350;6.708;2024-01-25T10:48:39;8.20;99.90
11666;DHT22;5889;51.350;6.708;2024-01-25T10:51:07;8.20;99.90
11666;DHT22;5889;51.350;6.708;2024-01-25T10:53:36;8.20;99.90
11666;DHT22;5889;51.350;6.708;2024-01-25T10:56:04;8.20;99.90
11666;DHT22;5889;51.350;6.708;2024-01-25T10:58:32;8.30;99.90
11666;DHT22;5889;51.350;6.708;2024-01-25T11:01:02;8.40;99.90
11666;DHT22;5889;51.350;6.708;2024-01-25T11:03:30;8.40;99.90
11666;DHT22;5889;51.350;6.708;2024-01-25T11:06:06;8.40;99.90
11666;DHT22;5889;51.350;6.708;2024-01-25T11:08:34;8.50;99.90
11666;DHT22;5889;51.350;6.708;2024-01-25T11:11:05;8.50;99.90
11666;DHT22;5889;51.350;6.708;2024-01-25T11:13:33;8.50;99.90
11666;DHT22;5889;51.350;6.708;2024-01-25T11:16:15;8.50;99.90
11666;DHT22;5889;51.350;6.708;2024-01-25T11:18:50;8.60;99.90
11666;DHT22;5889;51.350;6.708;2024-01-25T11:21:25;8.60;99.90
11666;DHT22;5889;51.350;6.708;2024-01-25T11:24:00;8.70;99.90
11666;DHT22;5889;51.350;6.708;2024-01-25T11:26:28;8.70;99.90
11666;DHT22;5889;51.350;6.708;2024-01-25T11:28:55;8.70;99.90
11666;DHT22;5889;51.350;6.708;2024-01-25T11:31:27;8.70;99.90
11666;DHT22;5889;51.350;6.708;2024-01-25T11:33:57;8.70;99.90
11666;DHT22;5889;51.350;6.708;2024-01-25T11:36:24;8.70;99.90
11666;DHT22;5889;51.350;6.708;2024-01-25T11:38:53;8.70;99.90
11666;DHT22;5889;51.350;6.708;2024-01-25T11:41:20;8.70;99.90
11666;DHT22;5889;51.350;6.708;2024-01-25T11:43:48;8.70;99.90
11666;DHT22;5889;51.350;6.708;2024-01-25T11:46:16;8.70;99.90
11666;DHT22;5889;51.350;6.708;2024-01-25T11:48:45;8.70;99.90
11666;DHT22;5889;51.350;6.708;2024-01-25T11:51:12;8.80;99.90
11666;DHT22;5889;51.350;6.708;2024-01-25T11:53:39;8.90;99.90
11666;DHT22;5889;51.350;6.708;2024-01-25T11:56:12;8.90;99.90
11666;DHT22;5889;51.350;6.708;2024-01-25T11:58:40;8.90;99.90
11666;DHT22;5889;51.350;6.708;2024-01-25T12:01:08;8.90;99.90
11666;DHT22;5889;51.350;6.708;2024-01-25T12:03:35;9.00;99.90
11666;DHT22;5889;51.350;6.708;2024-01-25T12:06:05;9.00;99.90
11666;DHT22;5889;51.350;6.708;2024-01-25T12:08:32;8.90;99.90
11666;DHT22;5889;51.350;6.708;2024-01-25T12:11:03;8.90;99.90
11666;DHT22;5889;51.350;6.708;2024-01-25T12:13:34;9.00;99.90
11666;DHT22;5889;51.350;6.708;2024-01-25T12:16:03;9.00;99.90
11666;DHT22;5889;51.350;6.708;2024-01-25T12:18:30;9.00;99.90
11666;DHT22;5889;51.350;6.708;2024-01-25T12:20:58;9.00;99.90
11666;DHT22;5889;51.350;6.708;2024-01-25T12:23:34;9.00;99.90
11666;DHT22;5889;51.350;6.708;2024-01-25T12:26:03;8.90;99.90
11666;DHT22;5889;51.350;6.708;2024-01-25T12:28:30;9.00;99.90
11666;DHT22;5889;51.350;6.708;2024-01-25T12:30:58;9.00;99.90
11666;DHT22;5889;51.350;6.708;2024-01-25T12:33:25;9.10;99.90
11666;DHT22;5889;51.350;6.708;2024-01-25T12:35:52;9.10;99.90
11666;DHT22;5889;51.350;6.708;2024-01-25T12:38:19;9.20;99.90
11666;DHT22;5889;51.350;6.708;2024-01-25T12:40:48;9.20;99.90
11666;DHT22;5889;51.350;6.708;2024-01-25T12:43:16;9.20;99.90
11666;DHT22;5889;51.350;6.708;2024-01-25T12:45:43;9.20;99.90
11666;DHT22;5889;51.350;6.708;2024-01-25T12:48:10;9.20;99.90
11666;DHT22;5889;51.350;6.708;2024-01-25T12:50:37;9.20;99.90
11666;DHT22;5889;51.350;6.708;2024-01-25T12:53:05;9.20;99.90
11666;DHT22;5889;51.350;6.708;2024-01-25T12:55:33;9.20;99.90
11666;DHT22;5889;51.350;6.708;2024-01-25T12:58:02;9.20;99.90
11666;DHT22;5889;51.350;6.708;2024-01-25T13:00:29;9.20;99.90
11666;DHT22;5889;51.350;6.708;2024-01-25T13:02:56;9.10;99.90
11666;DHT22;5889;51.350;6.708;2024-01-25T13:05:23;9.10;99.90
11666;DHT22;5889;51.350;6.708;2024-01-25T13:07:50;9.10;99.90
11666;DHT22;5889;51.350;6.708;2024-01-25T13:10:17;9.10;99.90
11666;DHT22;5889;51.350;6.708;2024-01-25T13:12:44;9.10;99.90
11666;DHT22;5889;51.350;6.708;2024-01-25T13:15:13;9.00;99.90
11666;DHT22;5889;51.350;6.708;2024-01-25T13:17:40;9.00;99.90
11666;DHT22;5889;51.350;6.708;2024-01-25T13:20:07;9.00;99.90
11666;DHT22;5889;51.350;6.708;2024-01-25T13:22:35;9.00;99.90
11666;DHT22;5889;51.350;6.708;2024-01-25T13:25:02;9.10;99.90
11666;DHT22;5889;51.350;6.708;2024-01-25T13:27:30;9.20;99.90
11666;DHT22;5889;51.350;6.708;2024-01-25T13:29:57;9.20;99.90
11666;DHT22;5889;51.350;6.708;2024-01-25T13:32:25;9.40;99.90
11666;DHT22;5889;51.350;6.708;2024-01-25T13:34:52;9.50;99.90
11666;DHT22;5889;51.350;6.708;2024-01-25T13:37:19;9.60;99.90
11666;DHT22;5889;51.350;6.708;2024-01-25T13:39:46;9.70;99.90
11666;DHT22;5889;51.350;6.708;2024-01-25T13:42:13;9.60;99.90
11666;DHT22;5889;51.350;6.708;2024-01-25T13:44:40;9.60;99.90
11666;DHT22;5889;51.350;6.708;2024-01-25T13:47:07;9.60;99.90
11666;DHT22;5889;51.350;6.708;2024-01-25T13:49:35;9.70;99.90
11666;DHT22;5889;51.350;6.708;2024-01-25T13:52:02;9.70;99.90
11666;DHT22;5889;51.350;6.708;2024-01-25T13:54:30;9.70;99.90
11666;DHT22;5889;51.350;6.708;2024-01-25T13:56:57;9.70;99.90
11666;DHT22;5889;51.350;6.708;2024-01-25T13:59:24;9.70;99.90
11666;DHT22;5889;51.350;6.708;2024-01-25T14:01:51;9.80;99.90
11666;DHT22;5889;51.350;6.708;2024-01-25T14:04:18;9.80;99.90
11666;DHT22;5889;51.350;6.708;2024-01-25T14:06:46;9.80;99.90
11666;DHT22;5889;51.350;6.708;2024-01-25T14:09:13;9.70;99.90
11666;DHT22;5889;51.350;6.708;2024-01-25T14:11:40;9.70;99.90
11666;DHT22;5889;51.350;6.708;2024-01-25T14:14:07;9.70;99.90
11666;DHT22;5889;51.350;6.708;2024-01-25T14:16:35;9.70;99.90
11666;DHT22;5889;51.350;6.708;2024-01-25T14:19:02;9.70;99.90
11666;DHT22;5889;51.350;6.708;2024-01-25T14:21:30;9.80;99.90
11666;DHT22;5889;51.350;6.708;2024-01-25T14:23:58;9.70;99.90
11666;DHT22;5889;51.350;6.708;2024-01-25T14:26:25;9.80;99.90
11666;DHT22;5889;51.350;6.708;2024-01-25T14:28:52;9.80;99.90
11666;DHT22;5889;51.350;6.708;2024-01-25T14:31:19;9.80;99.90
11666;DHT22;5889;51.350;6.708;2024-01-25T14:33:46;9.90;99.90
11666;DHT22;5889;51.350;6.708;2024-01-25T14:36:13;9.80;99.90
11666;DHT22;5889;51.350;6.708;2024-01-25T14:38:40;9.90;99.90
11666;DHT22;5889;51.350;6.708;2024-01-25T14:41:09;9.80;99.90
11666;DHT22;5889;51.350;6.708;2024-01-25T14:43:37;9.80;99.90
11666;DHT22;5889;51.350;6.708;2024-01-25T14:46:05;9.80;99.90
11666;DHT22;5889;51.350;6.708;2024-01-25T14:48:32;9.80;99.90
11666;DHT22;5889;51.350;6.708;2024-01-25T14:51:00;9.80;99.90
11666;DHT22;5889;51.350;6.708;2024-01-25T14:53:26;9.80;99.90
11666;DHT22;5889;51.350;6.708;2024-01-25T14:55:53;9.80;99.90
11666;DHT22;5889;51.350;6.708;2024-01-25T14:58:22;9.70;99.90
11666;DHT22;5889;51.350;6.708;2024-01-25T15:00:49;9.70;99.90
11666;DHT22;5889;51.350;6.708;2024-01-25T15:03:16;9.80;99.90
11666;DHT22;5889;51.350;6.708;2024-01-25T15:05:43;9.80;99.90
11666;DHT22;5889;51.350;6.708;2024-01-25T15:08:13;9.80;99.90
11666;DHT22;5889;51.350;6.708;2024-01-25T15:10:40;9.80;99.90
11666;DHT22;5889;51.350;6.708;2024-01-25T15:13:07;9.80;99.90
11666;DHT22;5889;51.350;6.708;2024-01-25T15:15:36;9.80;99.90
11666;DHT22;5889;51.350;6.708;2024-01-25T15:18:03;9.80;99.90
11666;DHT22;5889;51.350;6.708;2024-01-25T15:20:30;9.80;99.90
11666;DHT22;5889;51.350;6.708;2024-01-25T15:23:01;9.80;99.90
11666;DHT22;5889;51.350;6.708;2024-01-25T15:25:28;9.70;99.90
11666;DHT22;5889;51.350;6.708;2024-01-25T15:27:55;9.70;99.90
11666;DHT22;5889;51.350;6.708;2024-01-25T15:30:22;9.70;99.90
11666;DHT22;5889;51.350;6.708;2024-01-25T15:32:50;9.70;99.90
11666;DHT22;5889;51.350;6.708;2024-01-25T15:35:17;9.70;99.90
11666;DHT22;5889;51.350;6.708;2024-01-25T15:37:44;9.70;99.90
11666;DHT22;5889;51.350;6.708;2024-01-25T15:40:12;9.70;99.90
11666;DHT22;5889;51.350;6.708;2024-01-25T15:42:39;9.70;99.90
11666;DHT22;5889;51.350;6.708;2024-01-25T15:45:07;9.70;99.90
11666;DHT22;5889;51.350;6.708;2024-01-25T15:47:34;9.70;99.90
11666;DHT22;5889;51.350;6.708;2024-01-25T15:50:03;9.70;99.90
11666;DHT22;5889;51.350;6.708;2024-01-25T15:52:31;9.60;99.90
11666;DHT22;5889;51.350;6.708;2024-01-25T15:54:58;9.60;99.90
11666;DHT22;5889;51.350;6.708;2024-01-25T15:57:25;9.60;99.90
11666;DHT22;5889;51.350;6.708;2024-01-25T15:59:52;9.60;99.90
11666;DHT22;5889;51.350;6.708;2024-01-25T16:02:19;9.60;99.90
11666;DHT22;5889;51.350;6.708;2024-01-25T16:04:46;9.60;99.90